CheckWX is a tool to help pilots better visualize weather data.  It is not intended as a substitute for an official pre-flight weather briefing.

02:53:50 UTC

KMLE METAR
Millard Airport
Omaha, Nebraska, USA
Current

19 mins ago

KMLE 240235Z AUTO 11006KT 10SM SCT024 OVC034 10/06 A3000 RMK AO2 T01040059
Observed
Mar-24 @ 02:35 UTC
Wind
  • 110° at 6 KTS
Visibility
10 SM
Flight Rules
VFR
Cloud Levels
  • Scattered at 2,400' AGL
  • Overcast at 3,400' AGL
Temperature
10°C / 50°F
Dewpoint
C / 43°F
Humidity
76%
Altimeter
30" Hg
Pressure
1015.92 hPa
Previous

39 mins ago

KMLE 240215Z AUTO 11007KT 10SM OVC032 11/06 A2999 RMK AO2 T01050060
Observed
Mar-24 @ 02:15 UTC
Wind
  • 110° at 7 KTS
Visibility
10 SM
Flight Rules
VFR
Cloud Levels
  • Overcast at 3,200' AGL
Temperature
11°C / 52°F
Dewpoint
C / 43°F
Humidity
72%
Altimeter
29.99" Hg
Pressure
1015.62 hPa
Previous

59 mins ago

KMLE 240155Z AUTO 12008KT 10SM OVC030 11/06 A2999 RMK AO2 T01050060
Observed
Mar-24 @ 01:55 UTC
Wind
  • 120° at 8 KTS
Visibility
10 SM
Flight Rules
MVFR
Cloud Levels
  • Overcast at 3,000' AGL
Temperature
11°C / 52°F
Dewpoint
C / 43°F
Humidity
72%
Altimeter
29.99" Hg
Pressure
1015.62 hPa